Hlavní strana
METAR-TAF:

METAR-TAF

Letiště :

Evenes, Norsko

zeměpisná šířka: 68-31N, zeměpisná délka: 016-41E, výška: 26 m

Aktuální stav počasí

Zpráva byla vytvořena před 25 minutami, v 08:20 UTC
Jihozápadní vítr 8 kt, proměnlivý mezi jižním a západním
Teplota 7°C
Vlhkost vzduchu 87%
Tlak 1022 hPa
Viditelnost 10 km a více
Oblačno až skoro zataženo ve výšce 1000 ft
přeháňky v blízkosti

METAR: ENEV 290820Z 22008KT 180V280 9999 VCSH BKN010 07/05 Q1022 RMK WIND 1400FT 24022KT

Čas: 10:45 (08:45 UTC)

Předpověď počasí

Zpráva byla vytvořena před 45 minutami, v 08:00 UTC
Předpověď platná od 29 v 09 UTC do 29 v 17 UTC
Západojihozápadní vítr 8 kt
Viditelnost 10 km a více
Skoro jasno ve výšce 200 ft
Oblačno až skoro zataženo ve výšce 1500 ft
slabý déšť
Dočasný
od 29 v 09 UTC do 29 v 17 UTC
Oblačno až skoro zataženo ve výšce 600 ft

TAF: ENEV 290800Z 2909/2917 25008KT 9999 -RA FEW002 BKN015 TEMPO 2909/2917 BKN006

Stav a předpovědi počasí z více než 4 000 letišť (zprávy METAR a TAF).

Červené a žluté tečky na mapě představují dostupné meteorologické stanice.

Když kurzor umístíte na tečku, zobrazí se název stanice.

Pak kliknutím zobrazíte stav a předpověď počasí.

Chcete-li změnit mapu, kliknutím na zelené tlačítko se znaménkem +mapu přiblížíte, kliknutím na zelené tlačítko se znaménkem – mapu oddálíte a kliknutím na zelené šipky přejdete na sousední mapy.


METAR-TAF: